sensor_id;sensor_type;location;lat;lon;timestamp;P1;durP1;ratioP1;P2;durP2;ratioP2
15273;SDS011;7738;49.532;11.156;2022-11-23T00:02:23;3.05;;;2.35;;
15273;SDS011;7738;49.532;11.156;2022-11-23T00:04:53;9.25;;;2.38;;
15273;SDS011;7738;49.532;11.156;2022-11-23T00:07:23;9.63;;;2.60;;
15273;SDS011;7738;49.532;11.156;2022-11-23T00:09:56;7.65;;;2.20;;
15273;SDS011;7738;49.532;11.156;2022-11-23T00:12:26;4.57;;;2.25;;
15273;SDS011;7738;49.532;11.156;2022-11-23T00:14:57;5.70;;;2.47;;
15273;SDS011;7738;49.532;11.156;2022-11-23T00:17:27;7.68;;;2.42;;
15273;SDS011;7738;49.532;11.156;2022-11-23T00:19:57;4.47;;;2.67;;
15273;SDS011;7738;49.532;11.156;2022-11-23T00:22:28;5.07;;;2.15;;
15273;SDS011;7738;49.532;11.156;2022-11-23T00:25:01;7.82;;;2.55;;
15273;SDS011;7738;49.532;11.156;2022-11-23T00:27:31;6.22;;;1.83;;
15273;SDS011;7738;49.532;11.156;2022-11-23T00:30:01;5.32;;;2.35;;
15273;SDS011;7738;49.532;11.156;2022-11-23T00:32:32;6.28;;;2.40;;
15273;SDS011;7738;49.532;11.156;2022-11-23T00:35:05;3.50;;;1.93;;
15273;SDS011;7738;49.532;11.156;2022-11-23T00:37:36;6.13;;;2.22;;
15273;SDS011;7738;49.532;11.156;2022-11-23T00:40:09;6.93;;;2.75;;
15273;SDS011;7738;49.532;11.156;2022-11-23T00:42:41;5.40;;;2.03;;
15273;SDS011;7738;49.532;11.156;2022-11-23T00:45:11;7.93;;;2.08;;
15273;SDS011;7738;49.532;11.156;2022-11-23T00:47:41;6.60;;;2.20;;
15273;SDS011;7738;49.532;11.156;2022-11-23T00:50:11;7.05;;;2.10;;
15273;SDS011;7738;49.532;11.156;2022-11-23T00:52:42;6.88;;;2.40;;
15273;SDS011;7738;49.532;11.156;2022-11-23T00:55:15;3.63;;;1.95;;
15273;SDS011;7738;49.532;11.156;2022-11-23T00:57:45;8.30;;;2.85;;
15273;SDS011;7738;49.532;11.156;2022-11-23T01:00:15;6.05;;;1.83;;
15273;SDS011;7738;49.532;11.156;2022-11-23T01:02:46;4.20;;;2.25;;
15273;SDS011;7738;49.532;11.156;2022-11-23T01:05:16;3.67;;;2.25;;
15273;SDS011;7738;49.532;11.156;2022-11-23T01:07:46;8.88;;;2.58;;
15273;SDS011;7738;49.532;11.156;2022-11-23T01:10:19;4.95;;;2.20;;
15273;SDS011;7738;49.532;11.156;2022-11-23T01:12:49;8.02;;;2.05;;
15273;SDS011;7738;49.532;11.156;2022-11-23T01:15:19;9.77;;;2.55;;
15273;SDS011;7738;49.532;11.156;2022-11-23T01:17:51;5.47;;;2.00;;
15273;SDS011;7738;49.532;11.156;2022-11-23T01:20:21;7.05;;;2.03;;
15273;SDS011;7738;49.532;11.156;2022-11-23T01:22:52;5.40;;;2.00;;
15273;SDS011;7738;49.532;11.156;2022-11-23T01:25:25;5.05;;;2.13;;
15273;SDS011;7738;49.532;11.156;2022-11-23T01:27:57;4.63;;;2.03;;
15273;SDS011;7738;49.532;11.156;2022-11-23T01:30:27;5.88;;;2.15;;
15273;SDS011;7738;49.532;11.156;2022-11-23T01:32:57;4.97;;;2.63;;
15273;SDS011;7738;49.532;11.156;2022-11-23T01:35:28;8.43;;;2.38;;
15273;SDS011;7738;49.532;11.156;2022-11-23T01:37:58;5.47;;;2.38;;
15273;SDS011;7738;49.532;11.156;2022-11-23T01:40:31;3.53;;;2.30;;
15273;SDS011;7738;49.532;11.156;2022-11-23T01:43:12;6.75;;;2.30;;
15273;SDS011;7738;49.532;11.156;2022-11-23T01:45:43;8.65;;;1.98;;
15273;SDS011;7738;49.532;11.156;2022-11-23T01:48:25;10.50;;;2.45;;
15273;SDS011;7738;49.532;11.156;2022-11-23T01:51:01;3.22;;;1.90;;
15273;SDS011;7738;49.532;11.156;2022-11-23T01:53:35;6.30;;;2.67;;
15273;SDS011;7738;49.532;11.156;2022-11-23T01:56:09;7.65;;;2.08;;
15273;SDS011;7738;49.532;11.156;2022-11-23T01:58:44;9.68;;;2.05;;
15273;SDS011;7738;49.532;11.156;2022-11-23T02:01:16;8.13;;;2.20;;
15273;SDS011;7738;49.532;11.156;2022-11-23T02:03:47;3.38;;;1.83;;
15273;SDS011;7738;49.532;11.156;2022-11-23T02:06:19;4.07;;;2.23;;
15273;SDS011;7738;49.532;11.156;2022-11-23T02:08:51;6.15;;;2.50;;
15273;SDS011;7738;49.532;11.156;2022-11-23T02:11:24;6.18;;;2.25;;
15273;SDS011;7738;49.532;11.156;2022-11-23T02:13:54;5.55;;;2.30;;
15273;SDS011;7738;49.532;11.156;2022-11-23T02:16:28;5.97;;;2.65;;
15273;SDS011;7738;49.532;11.156;2022-11-23T02:18:59;4.25;;;2.65;;
15273;SDS011;7738;49.532;11.156;2022-11-23T02:21:29;7.07;;;2.30;;
15273;SDS011;7738;49.532;11.156;2022-11-23T02:24:01;4.57;;;2.17;;
15273;SDS011;7738;49.532;11.156;2022-11-23T02:26:41;8.05;;;2.53;;
15273;SDS011;7738;49.532;11.156;2022-11-23T02:29:13;6.90;;;2.58;;
15273;SDS011;7738;49.532;11.156;2022-11-23T02:31:45;4.15;;;1.85;;
15273;SDS011;7738;49.532;11.156;2022-11-23T02:34:16;3.53;;;2.20;;
15273;SDS011;7738;49.532;11.156;2022-11-23T02:36:47;4.90;;;2.33;;
15273;SDS011;7738;49.532;11.156;2022-11-23T02:39:20;5.85;;;2.22;;
15273;SDS011;7738;49.532;11.156;2022-11-23T02:41:57;6.07;;;2.17;;
15273;SDS011;7738;49.532;11.156;2022-11-23T02:44:32;5.03;;;2.20;;
15273;SDS011;7738;49.532;11.156;2022-11-23T02:47:08;6.18;;;2.13;;
15273;SDS011;7738;49.532;11.156;2022-11-23T02:49:39;7.77;;;2.63;;
15273;SDS011;7738;49.532;11.156;2022-11-23T02:52:09;5.93;;;2.33;;
15273;SDS011;7738;49.532;11.156;2022-11-23T02:54:40;3.27;;;2.43;;
15273;SDS011;7738;49.532;11.156;2022-11-23T02:57:13;10.10;;;3.23;;
15273;SDS011;7738;49.532;11.156;2022-11-23T02:59:45;8.20;;;3.03;;
15273;SDS011;7738;49.532;11.156;2022-11-23T03:02:15;5.17;;;2.60;;
15273;SDS011;7738;49.532;11.156;2022-11-23T03:04:45;4.95;;;2.55;;
15273;SDS011;7738;49.532;11.156;2022-11-23T03:07:18;5.07;;;2.43;;
15273;SDS011;7738;49.532;11.156;2022-11-23T03:09:49;3.30;;;2.60;;
15273;SDS011;7738;49.532;11.156;2022-11-23T03:12:22;8.33;;;2.80;;
15273;SDS011;7738;49.532;11.156;2022-11-23T03:14:52;4.85;;;2.50;;
15273;SDS011;7738;49.532;11.156;2022-11-23T03:17:23;4.22;;;2.38;;
15273;SDS011;7738;49.532;11.156;2022-11-23T03:19:53;4.30;;;2.63;;
15273;SDS011;7738;49.532;11.156;2022-11-23T03:22:24;4.73;;;2.50;;
15273;SDS011;7738;49.532;11.156;2022-11-23T03:24:54;8.90;;;3.00;;
15273;SDS011;7738;49.532;11.156;2022-11-23T03:27:29;5.80;;;3.10;;
15273;SDS011;7738;49.532;11.156;2022-11-23T03:30:01;9.13;;;2.55;;
15273;SDS011;7738;49.532;11.156;2022-11-23T03:32:33;7.03;;;3.08;;
15273;SDS011;7738;49.532;11.156;2022-11-23T03:35:04;3.92;;;2.45;;
15273;SDS011;7738;49.532;11.156;2022-11-23T03:37:47;6.75;;;2.38;;
15273;SDS011;7738;49.532;11.156;2022-11-23T03:40:18;6.13;;;2.75;;
15273;SDS011;7738;49.532;11.156;2022-11-23T03:43:11;6.65;;;2.53;;
15273;SDS011;7738;49.532;11.156;2022-11-23T03:45:41;6.25;;;2.40;;
15273;SDS011;7738;49.532;11.156;2022-11-23T03:48:12;6.70;;;2.70;;
15273;SDS011;7738;49.532;11.156;2022-11-23T03:50:43;10.43;;;4.28;;
15273;SDS011;7738;49.532;11.156;2022-11-23T03:53:14;17.73;;;6.13;;
15273;SDS011;7738;49.532;11.156;2022-11-23T03:55:45;30.30;;;7.33;;
15273;SDS011;7738;49.532;11.156;2022-11-23T03:58:18;12.43;;;4.50;;
15273;SDS011;7738;49.532;11.156;2022-11-23T04:00:51;18.05;;;6.40;;
15273;SDS011;7738;49.532;11.156;2022-11-23T04:03:21;8.90;;;4.43;;
15273;SDS011;7738;49.532;11.156;2022-11-23T04:06:08;9.57;;;4.37;;
15273;SDS011;7738;49.532;11.156;2022-11-23T04:09:01;9.30;;;3.97;;
15273;SDS011;7738;49.532;11.156;2022-11-23T04:11:54;6.28;;;3.42;;
15273;SDS011;7738;49.532;11.156;2022-11-23T04:14:27;10.90;;;3.60;;
15273;SDS011;7738;49.532;11.156;2022-11-23T04:16:58;7.45;;;3.90;;
15273;SDS011;7738;49.532;11.156;2022-11-23T04:19:29;9.98;;;3.33;;
15273;SDS011;7738;49.532;11.156;2022-11-23T04:21:59;10.20;;;4.30;;
15273;SDS011;7738;49.532;11.156;2022-11-23T04:24:36;10.27;;;3.87;;
15273;SDS011;7738;49.532;11.156;2022-11-23T04:27:07;10.27;;;3.90;;
15273;SDS011;7738;49.532;11.156;2022-11-23T04:29:40;4.40;;;3.40;;
15273;SDS011;7738;49.532;11.156;2022-11-23T04:32:10;9.98;;;4.53;;
15273;SDS011;7738;49.532;11.156;2022-11-23T04:34:41;12.25;;;5.45;;
15273;SDS011;7738;49.532;11.156;2022-11-23T04:37:12;9.57;;;4.70;;
15273;SDS011;7738;49.532;11.156;2022-11-23T04:39:43;8.38;;;4.55;;
15273;SDS011;7738;49.532;11.156;2022-11-23T04:42:32;12.87;;;4.50;;
15273;SDS011;7738;49.532;11.156;2022-11-23T04:45:06;9.45;;;4.63;;
15273;SDS011;7738;49.532;11.156;2022-11-23T04:47:37;15.88;;;3.83;;
15273;SDS011;7738;49.532;11.156;2022-11-23T04:50:11;9.00;;;4.15;;
15273;SDS011;7738;49.532;11.156;2022-11-23T04:52:47;8.30;;;3.80;;
15273;SDS011;7738;49.532;11.156;2022-11-23T04:55:22;12.95;;;4.13;;
15273;SDS011;7738;49.532;11.156;2022-11-23T04:57:59;9.35;;;4.10;;
15273;SDS011;7738;49.532;11.156;2022-11-23T05:00:35;9.80;;;4.87;;
15273;SDS011;7738;49.532;11.156;2022-11-23T05:03:05;9.07;;;4.50;;
15273;SDS011;7738;49.532;11.156;2022-11-23T05:05:38;11.23;;;3.65;;
15273;SDS011;7738;49.532;11.156;2022-11-23T05:08:09;14.65;;;4.63;;
15273;SDS011;7738;49.532;11.156;2022-11-23T05:11:02;6.95;;;3.45;;
15273;SDS011;7738;49.532;11.156;2022-11-23T05:13:33;6.15;;;4.38;;
15273;SDS011;7738;49.532;11.156;2022-11-23T05:16:06;14.95;;;5.30;;
15273;SDS011;7738;49.532;11.156;2022-11-23T05:18:38;10.63;;;3.72;;
15273;SDS011;7738;49.532;11.156;2022-11-23T05:21:09;6.43;;;3.78;;
15273;SDS011;7738;49.532;11.156;2022-11-23T05:23:39;11.50;;;6.28;;
15273;SDS011;7738;49.532;11.156;2022-11-23T05:26:10;7.35;;;4.28;;
15273;SDS011;7738;49.532;11.156;2022-11-23T05:28:41;7.30;;;4.20;;
15273;SDS011;7738;49.532;11.156;2022-11-23T05:31:16;9.07;;;3.72;;
15273;SDS011;7738;49.532;11.156;2022-11-23T05:33:47;5.57;;;2.58;;
15273;SDS011;7738;49.532;11.156;2022-11-23T05:36:26;7.22;;;2.92;;
15273;SDS011;7738;49.532;11.156;2022-11-23T05:38:57;6.88;;;2.85;;
15273;SDS011;7738;49.532;11.156;2022-11-23T05:41:30;6.38;;;3.00;;
15273;SDS011;7738;49.532;11.156;2022-11-23T05:44:04;3.20;;;2.70;;
15273;SDS011;7738;49.532;11.156;2022-11-23T05:46:37;5.20;;;1.88;;
15273;SDS011;7738;49.532;11.156;2022-11-23T05:49:08;11.30;;;2.63;;
15273;SDS011;7738;49.532;11.156;2022-11-23T05:51:38;6.28;;;2.38;;
15273;SDS011;7738;49.532;11.156;2022-11-23T05:54:09;5.68;;;1.73;;
15273;SDS011;7738;49.532;11.156;2022-11-23T05:56:49;2.95;;;2.40;;
15273;SDS011;7738;49.532;11.156;2022-11-23T05:59:23;7.53;;;2.90;;
15273;SDS011;7738;49.532;11.156;2022-11-23T06:02:01;4.93;;;2.08;;
15273;SDS011;7738;49.532;11.156;2022-11-23T06:04:34;5.05;;;2.25;;
15273;SDS011;7738;49.532;11.156;2022-11-23T06:07:08;12.20;;;2.80;;
15273;SDS011;7738;49.532;11.156;2022-11-23T06:09:53;9.20;;;2.53;;
15273;SDS011;7738;49.532;11.156;2022-11-23T06:12:25;5.55;;;2.78;;
15273;SDS011;7738;49.532;11.156;2022-11-23T06:14:58;4.95;;;2.10;;
15273;SDS011;7738;49.532;11.156;2022-11-23T06:17:31;7.32;;;2.25;;
15273;SDS011;7738;49.532;11.156;2022-11-23T06:20:05;7.93;;;2.45;;
15273;SDS011;7738;49.532;11.156;2022-11-23T06:22:41;5.65;;;2.78;;
15273;SDS011;7738;49.532;11.156;2022-11-23T06:25:12;9.82;;;2.70;;
15273;SDS011;7738;49.532;11.156;2022-11-23T06:27:52;6.95;;;2.40;;
15273;SDS011;7738;49.532;11.156;2022-11-23T06:30:28;5.13;;;2.95;;
15273;SDS011;7738;49.532;11.156;2022-11-23T06:33:06;6.20;;;2.65;;
15273;SDS011;7738;49.532;11.156;2022-11-23T06:35:42;6.95;;;2.55;;
15273;SDS011;7738;49.532;11.156;2022-11-23T06:38:20;7.50;;;2.50;;
15273;SDS011;7738;49.532;11.156;2022-11-23T06:40:58;7.15;;;3.05;;
15273;SDS011;7738;49.532;11.156;2022-11-23T06:43:30;6.53;;;2.45;;
15273;SDS011;7738;49.532;11.156;2022-11-23T06:46:02;6.93;;;2.78;;
15273;SDS011;7738;49.532;11.156;2022-11-23T06:48:41;7.05;;;2.63;;
15273;SDS011;7738;49.532;11.156;2022-11-23T06:51:13;11.65;;;2.95;;
15273;SDS011;7738;49.532;11.156;2022-11-23T06:53:46;9.77;;;2.85;;
15273;SDS011;7738;49.532;11.156;2022-11-23T06:56:17;10.35;;;3.20;;
15273;SDS011;7738;49.532;11.156;2022-11-23T06:58:47;9.73;;;3.28;;
15273;SDS011;7738;49.532;11.156;2022-11-23T07:01:22;5.43;;;2.63;;
15273;SDS011;7738;49.532;11.156;2022-11-23T07:04:05;7.65;;;3.00;;
15273;SDS011;7738;49.532;11.156;2022-11-23T07:06:43;9.98;;;2.75;;
15273;SDS011;7738;49.532;11.156;2022-11-23T07:09:24;5.85;;;2.92;;
15273;SDS011;7738;49.532;11.156;2022-11-23T07:12:30;9.52;;;2.47;;
15273;SDS011;7738;49.532;11.156;2022-11-23T07:15:00;5.97;;;2.65;;
15273;SDS011;7738;49.532;11.156;2022-11-23T07:17:37;3.50;;;2.58;;
15273;SDS011;7738;49.532;11.156;2022-11-23T07:20:11;6.80;;;2.90;;
15273;SDS011;7738;49.532;11.156;2022-11-23T07:25:13;8.77;;;2.95;;
15273;SDS011;7738;49.532;11.156;2022-11-23T07:27:44;6.20;;;2.50;;
15273;SDS011;7738;49.532;11.156;2022-11-23T07:30:15;4.32;;;2.85;;
15273;SDS011;7738;49.532;11.156;2022-11-23T07:32:48;10.88;;;3.45;;
15273;SDS011;7738;49.532;11.156;2022-11-23T07:35:20;6.90;;;4.55;;
15273;SDS011;7738;49.532;11.156;2022-11-23T07:37:51;9.07;;;3.88;;
15273;SDS011;7738;49.532;11.156;2022-11-23T07:40:21;6.35;;;3.28;;
15273;SDS011;7738;49.532;11.156;2022-11-23T07:42:52;7.75;;;3.08;;
15273;SDS011;7738;49.532;11.156;2022-11-23T07:45:27;10.43;;;3.60;;
15273;SDS011;7738;49.532;11.156;2022-11-23T07:47:59;7.30;;;3.28;;
15273;SDS011;7738;49.532;11.156;2022-11-23T07:50:33;5.20;;;2.92;;
15273;SDS011;7738;49.532;11.156;2022-11-23T07:55:34;5.32;;;3.20;;
15273;SDS011;7738;49.532;11.156;2022-11-23T07:58:05;8.00;;;3.55;;
15273;SDS011;7738;49.532;11.156;2022-11-23T08:00:35;7.07;;;3.50;;
15273;SDS011;7738;49.532;11.156;2022-11-23T08:03:06;7.25;;;2.97;;
15273;SDS011;7738;49.532;11.156;2022-11-23T08:05:56;8.50;;;3.75;;
15273;SDS011;7738;49.532;11.156;2022-11-23T08:08:26;5.88;;;3.63;;
15273;SDS011;7738;49.532;11.156;2022-11-23T08:10:56;8.88;;;3.45;;
15273;SDS011;7738;49.532;11.156;2022-11-23T08:13:26;10.15;;;3.65;;
15273;SDS011;7738;49.532;11.156;2022-11-23T08:15:57;9.98;;;3.72;;
15273;SDS011;7738;49.532;11.156;2022-11-23T08:18:27;7.72;;;3.70;;
15273;SDS011;7738;49.532;11.156;2022-11-23T08:21:00;9.00;;;4.18;;
15273;SDS011;7738;49.532;11.156;2022-11-23T08:23:31;6.35;;;3.72;;
15273;SDS011;7738;49.532;11.156;2022-11-23T08:26:01;7.30;;;4.05;;
15273;SDS011;7738;49.532;11.156;2022-11-23T08:28:39;8.05;;;4.45;;
15273;SDS011;7738;49.532;11.156;2022-11-23T08:31:09;7.57;;;4.22;;
15273;SDS011;7738;49.532;11.156;2022-11-23T08:33:40;8.80;;;3.60;;
15273;SDS011;7738;49.532;11.156;2022-11-23T08:36:13;8.15;;;3.80;;
15273;SDS011;7738;49.532;11.156;2022-11-23T08:38:43;9.27;;;4.40;;
15273;SDS011;7738;49.532;11.156;2022-11-23T08:41:17;5.03;;;3.92;;
15273;SDS011;7738;49.532;11.156;2022-11-23T08:43:48;9.43;;;4.32;;
15273;SDS011;7738;49.532;11.156;2022-11-23T08:46:19;6.85;;;3.83;;
15273;SDS011;7738;49.532;11.156;2022-11-23T08:48:49;15.18;;;4.55;;
15273;SDS011;7738;49.532;11.156;2022-11-23T08:51:21;8.55;;;3.55;;
15273;SDS011;7738;49.532;11.156;2022-11-23T08:53:52;11.20;;;4.38;;
15273;SDS011;7738;49.532;11.156;2022-11-23T08:56:22;11.55;;;4.80;;
15273;SDS011;7738;49.532;11.156;2022-11-23T08:58:52;8.70;;;3.78;;
15273;SDS011;7738;49.532;11.156;2022-11-23T09:01:22;7.60;;;4.30;;
15273;SDS011;7738;49.532;11.156;2022-11-23T09:03:52;8.95;;;4.30;;
15273;SDS011;7738;49.532;11.156;2022-11-23T09:06:25;9.93;;;3.55;;
15273;SDS011;7738;49.532;11.156;2022-11-23T09:08:55;7.97;;;3.67;;
15273;SDS011;7738;49.532;11.156;2022-11-23T09:11:25;9.15;;;4.60;;
15273;SDS011;7738;49.532;11.156;2022-11-23T09:13:55;9.43;;;4.00;;
15273;SDS011;7738;49.532;11.156;2022-11-23T09:16:26;9.27;;;4.20;;
15273;SDS011;7738;49.532;11.156;2022-11-23T09:18:59;8.75;;;5.38;;
15273;SDS011;7738;49.532;11.156;2022-11-23T09:21:32;9.23;;;4.32;;
15273;SDS011;7738;49.532;11.156;2022-11-23T09:24:05;7.43;;;4.25;;
15273;SDS011;7738;49.532;11.156;2022-11-23T09:26:35;10.70;;;3.92;;
15273;SDS011;7738;49.532;11.156;2022-11-23T09:29:06;12.32;;;4.40;;
15273;SDS011;7738;49.532;11.156;2022-11-23T09:31:37;8.30;;;3.80;;
15273;SDS011;7738;49.532;11.156;2022-11-23T09:34:08;9.60;;;4.95;;
15273;SDS011;7738;49.532;11.156;2022-11-23T09:36:42;8.02;;;4.13;;
15273;SDS011;7738;49.532;11.156;2022-11-23T09:39:13;8.82;;;4.22;;
15273;SDS011;7738;49.532;11.156;2022-11-23T09:41:48;6.82;;;3.33;;
15273;SDS011;7738;49.532;11.156;2022-11-23T09:44:39;10.38;;;3.72;;
15273;SDS011;7738;49.532;11.156;2022-11-23T09:47:26;8.52;;;3.70;;
15273;SDS011;7738;49.532;11.156;2022-11-23T09:50:11;7.05;;;3.70;;
15273;SDS011;7738;49.532;11.156;2022-11-23T09:52:49;7.53;;;3.75;;
15273;SDS011;7738;49.532;11.156;2022-11-23T09:55:20;5.97;;;3.87;;
15273;SDS011;7738;49.532;11.156;2022-11-23T09:57:58;7.18;;;3.45;;
15273;SDS011;7738;49.532;11.156;2022-11-23T10:00:34;8.90;;;3.53;;
15273;SDS011;7738;49.532;11.156;2022-11-23T10:03:09;7.75;;;3.58;;
15273;SDS011;7738;49.532;11.156;2022-11-23T10:05:43;9.05;;;3.22;;
15273;SDS011;7738;49.532;11.156;2022-11-23T10:08:25;8.02;;;2.90;;
15273;SDS011;7738;49.532;11.156;2022-11-23T10:11:20;7.47;;;2.53;;
15273;SDS011;7738;49.532;11.156;2022-11-23T10:14:01;4.03;;;2.42;;
15273;SDS011;7738;49.532;11.156;2022-11-23T10:16:43;6.53;;;3.00;;
15273;SDS011;7738;49.532;11.156;2022-11-23T10:19:23;4.05;;;2.28;;
15273;SDS011;7738;49.532;11.156;2022-11-23T10:22:04;5.68;;;2.08;;
15273;SDS011;7738;49.532;11.156;2022-11-23T10:24:45;8.13;;;2.20;;
15273;SDS011;7738;49.532;11.156;2022-11-23T10:27:19;7.10;;;2.50;;
15273;SDS011;7738;49.532;11.156;2022-11-23T10:29:51;5.45;;;2.08;;
15273;SDS011;7738;49.532;11.156;2022-11-23T10:32:25;7.22;;;1.75;;
15273;SDS011;7738;49.532;11.156;2022-11-23T10:35:01;12.32;;;2.95;;
15273;SDS011;7738;49.532;11.156;2022-11-23T10:37:35;4.20;;;1.88;;
15273;SDS011;7738;49.532;11.156;2022-11-23T10:40:14;4.57;;;2.00;;
15273;SDS011;7738;49.532;11.156;2022-11-23T10:42:47;7.25;;;2.75;;
15273;SDS011;7738;49.532;11.156;2022-11-23T10:45:20;2.92;;;1.92;;
15273;SDS011;7738;49.532;11.156;2022-11-23T10:47:53;2.63;;;1.52;;
15273;SDS011;7738;49.532;11.156;2022-11-23T10:50:25;5.57;;;1.85;;
15273;SDS011;7738;49.532;11.156;2022-11-23T10:53:00;4.30;;;1.80;;
15273;SDS011;7738;49.532;11.156;2022-11-23T10:55:51;2.83;;;1.63;;
15273;SDS011;7738;49.532;11.156;2022-11-23T10:58:24;4.95;;;1.55;;
15273;SDS011;7738;49.532;11.156;2022-11-23T11:00:59;4.20;;;1.48;;
15273;SDS011;7738;49.532;11.156;2022-11-23T11:03:32;5.10;;;2.20;;
15273;SDS011;7738;49.532;11.156;2022-11-23T11:06:03;2.10;;;1.50;;
15273;SDS011;7738;49.532;11.156;2022-11-23T11:08:45;8.73;;;1.45;;
15273;SDS011;7738;49.532;11.156;2022-11-23T11:11:24;5.38;;;1.92;;
15273;SDS011;7738;49.532;11.156;2022-11-23T11:14:03;2.28;;;1.70;;
15273;SDS011;7738;49.532;11.156;2022-11-23T11:16:34;3.83;;;1.02;;
15273;SDS011;7738;49.532;11.156;2022-11-23T11:19:24;6.03;;;1.27;;
15273;SDS011;7738;49.532;11.156;2022-11-23T11:21:56;5.25;;;1.90;;
15273;SDS011;7738;49.532;11.156;2022-11-23T11:24:27;5.45;;;1.40;;
15273;SDS011;7738;49.532;11.156;2022-11-23T11:27:04;4.78;;;1.88;;
15273;SDS011;7738;49.532;11.156;2022-11-23T11:29:46;3.67;;;1.45;;
15273;SDS011;7738;49.532;11.156;2022-11-23T11:34:52;5.53;;;1.75;;
15273;SDS011;7738;49.532;11.156;2022-11-23T11:37:29;5.20;;;1.27;;
15273;SDS011;7738;49.532;11.156;2022-11-23T11:42:40;3.22;;;1.48;;
15273;SDS011;7738;49.532;11.156;2022-11-23T11:45:15;4.15;;;1.63;;
15273;SDS011;7738;49.532;11.156;2022-11-23T11:50:22;3.38;;;1.25;;
15273;SDS011;7738;49.532;11.156;2022-11-23T11:52:59;3.17;;;1.20;;
15273;SDS011;7738;49.532;11.156;2022-11-23T11:55:38;1.60;;;0.68;;
15273;SDS011;7738;49.532;11.156;2022-11-23T11:58:18;3.45;;;1.10;;
15273;SDS011;7738;49.532;11.156;2022-11-23T12:00:55;6.05;;;0.98;;
15273;SDS011;7738;49.532;11.156;2022-11-23T12:03:36;5.07;;;0.80;;
15273;SDS011;7738;49.532;11.156;2022-11-23T12:06:10;1.52;;;0.50;;
15273;SDS011;7738;49.532;11.156;2022-11-23T12:08:54;3.00;;;0.55;;
15273;SDS011;7738;49.532;11.156;2022-11-23T12:11:28;2.75;;;0.55;;
15273;SDS011;7738;49.532;11.156;2022-11-23T12:14:02;2.65;;;0.50;;
15273;SDS011;7738;49.532;11.156;2022-11-23T12:16:35;3.67;;;0.60;;
15273;SDS011;7738;49.532;11.156;2022-11-23T12:19:33;3.88;;;0.70;;
15273;SDS011;7738;49.532;11.156;2022-11-23T12:22:12;2.22;;;0.38;;
15273;SDS011;7738;49.532;11.156;2022-11-23T12:27:49;5.85;;;1.73;;
15273;SDS011;7738;49.532;11.156;2022-11-23T12:30:33;3.70;;;0.57;;
15273;SDS011;7738;49.532;11.156;2022-11-23T12:33:16;3.25;;;0.68;;
15273;SDS011;7738;49.532;11.156;2022-11-23T12:36:11;9.02;;;1.83;;
15273;SDS011;7738;49.532;11.156;2022-11-23T12:38:53;7.18;;;0.85;;
15273;SDS011;7738;49.532;11.156;2022-11-23T12:41:27;9.73;;;1.08;;
15273;SDS011;7738;49.532;11.156;2022-11-23T12:46:56;3.10;;;0.80;;
15273;SDS011;7738;49.532;11.156;2022-11-23T12:49:32;3.28;;;1.02;;
15273;SDS011;7738;49.532;11.156;2022-11-23T12:52:08;9.52;;;1.33;;
15273;SDS011;7738;49.532;11.156;2022-11-23T12:54:55;3.78;;;0.65;;
15273;SDS011;7738;49.532;11.156;2022-11-23T12:57:30;5.88;;;0.85;;
15273;SDS011;7738;49.532;11.156;2022-11-23T13:00:05;3.80;;;0.77;;
15273;SDS011;7738;49.532;11.156;2022-11-23T13:05:33;4.10;;;0.82;;
15273;SDS011;7738;49.532;11.156;2022-11-23T13:08:14;4.50;;;0.75;;
15273;SDS011;7738;49.532;11.156;2022-11-23T13:10:52;3.63;;;0.73;;
15273;SDS011;7738;49.532;11.156;2022-11-23T13:13:30;1.52;;;0.60;;
15273;SDS011;7738;49.532;11.156;2022-11-23T13:16:19;3.80;;;0.80;;
15273;SDS011;7738;49.532;11.156;2022-11-23T13:21:56;2.20;;;0.63;;
15273;SDS011;7738;49.532;11.156;2022-11-23T13:24:27;2.80;;;0.85;;
15273;SDS011;7738;49.532;11.156;2022-11-23T13:30:00;3.42;;;1.00;;
15273;SDS011;7738;49.532;11.156;2022-11-23T13:32:50;4.60;;;1.13;;
15273;SDS011;7738;49.532;11.156;2022-11-23T13:38:38;3.13;;;1.00;;
15273;SDS011;7738;49.532;11.156;2022-11-23T13:44:08;4.28;;;1.00;;
15273;SDS011;7738;49.532;11.156;2022-11-23T13:46:39;5.25;;;0.90;;
15273;SDS011;7738;49.532;11.156;2022-11-23T13:49:27;3.38;;;1.13;;
15273;SDS011;7738;49.532;11.156;2022-11-23T13:52:05;2.45;;;0.63;;
15273;SDS011;7738;49.532;11.156;2022-11-23T13:54:54;2.75;;;0.93;;
15273;SDS011;7738;49.532;11.156;2022-11-23T13:57:32;2.83;;;1.27;;
15273;SDS011;7738;49.532;11.156;2022-11-23T14:06:24;3.85;;;1.33;;
15273;SDS011;7738;49.532;11.156;2022-11-23T14:08:58;4.45;;;1.13;;
15273;SDS011;7738;49.532;11.156;2022-11-23T14:11:38;2.80;;;1.05;;
15273;SDS011;7738;49.532;11.156;2022-11-23T14:19:35;4.32;;;1.75;;
15273;SDS011;7738;49.532;11.156;2022-11-23T14:22:11;5.22;;;1.42;;
15273;SDS011;7738;49.532;11.156;2022-11-23T14:24:49;7.82;;;2.20;;
15273;SDS011;7738;49.532;11.156;2022-11-23T14:27:36;5.07;;;1.75;;
15273;SDS011;7738;49.532;11.156;2022-11-23T14:30:19;5.18;;;1.88;;
15273;SDS011;7738;49.532;11.156;2022-11-23T14:35:48;2.20;;;1.15;;
15273;SDS011;7738;49.532;11.156;2022-11-23T14:38:31;2.50;;;1.60;;
15273;SDS011;7738;49.532;11.156;2022-11-23T14:41:05;3.72;;;1.73;;
15273;SDS011;7738;49.532;11.156;2022-11-23T14:43:40;3.92;;;1.70;;
15273;SDS011;7738;49.532;11.156;2022-11-23T14:46:13;3.53;;;1.63;;
15273;SDS011;7738;49.532;11.156;2022-11-23T14:48:46;3.70;;;2.08;;
15273;SDS011;7738;49.532;11.156;2022-11-23T14:51:17;5.38;;;1.65;;
15273;SDS011;7738;49.532;11.156;2022-11-23T14:53:48;4.97;;;2.22;;
15273;SDS011;7738;49.532;11.156;2022-11-23T14:56:30;4.82;;;1.92;;
15273;SDS011;7738;49.532;11.156;2022-11-23T14:59:05;2.65;;;2.05;;
15273;SDS011;7738;49.532;11.156;2022-11-23T15:01:39;5.78;;;2.05;;
15273;SDS011;7738;49.532;11.156;2022-11-23T15:04:20;4.05;;;1.85;;
15273;SDS011;7738;49.532;11.156;2022-11-23T15:06:52;4.13;;;2.15;;
15273;SDS011;7738;49.532;11.156;2022-11-23T15:09:31;4.63;;;2.03;;
15273;SDS011;7738;49.532;11.156;2022-11-23T15:12:06;3.17;;;2.17;;
15273;SDS011;7738;49.532;11.156;2022-11-23T15:14:41;6.22;;;2.25;;
15273;SDS011;7738;49.532;11.156;2022-11-23T15:17:15;8.00;;;2.30;;
15273;SDS011;7738;49.532;11.156;2022-11-23T15:19:53;4.25;;;2.10;;
15273;SDS011;7738;49.532;11.156;2022-11-23T15:22:23;3.42;;;1.80;;
15273;SDS011;7738;49.532;11.156;2022-11-23T15:24:54;4.15;;;1.80;;
15273;SDS011;7738;49.532;11.156;2022-11-23T15:27:35;6.30;;;2.20;;
15273;SDS011;7738;49.532;11.156;2022-11-23T15:30:16;5.95;;;2.75;;
15273;SDS011;7738;49.532;11.156;2022-11-23T15:32:53;4.13;;;1.98;;
15273;SDS011;7738;49.532;11.156;2022-11-23T15:35:27;6.10;;;2.75;;
15273;SDS011;7738;49.532;11.156;2022-11-23T15:37:58;6.47;;;2.63;;
15273;SDS011;7738;49.532;11.156;2022-11-23T15:40:31;6.13;;;2.60;;
15273;SDS011;7738;49.532;11.156;2022-11-23T15:43:01;3.97;;;2.35;;
15273;SDS011;7738;49.532;11.156;2022-11-23T15:45:35;5.75;;;2.97;;
15273;SDS011;7738;49.532;11.156;2022-11-23T15:50:42;4.40;;;2.13;;
15273;SDS011;7738;49.532;11.156;2022-11-23T15:53:13;4.78;;;2.70;;
15273;SDS011;7738;49.532;11.156;2022-11-23T15:55:44;5.55;;;2.70;;
15273;SDS011;7738;49.532;11.156;2022-11-23T15:58:15;8.93;;;3.17;;
15273;SDS011;7738;49.532;11.156;2022-11-23T16:00:50;12.05;;;3.42;;
15273;SDS011;7738;49.532;11.156;2022-11-23T16:03:26;5.13;;;3.38;;
15273;SDS011;7738;49.532;11.156;2022-11-23T16:06:14;4.22;;;3.22;;
15273;SDS011;7738;49.532;11.156;2022-11-23T16:08:45;5.03;;;3.78;;
15273;SDS011;7738;49.532;11.156;2022-11-23T16:11:28;6.13;;;3.47;;
15273;SDS011;7738;49.532;11.156;2022-11-23T16:14:15;6.75;;;4.15;;
15273;SDS011;7738;49.532;11.156;2022-11-23T16:16:57;5.57;;;4.63;;
15273;SDS011;7738;49.532;11.156;2022-11-23T16:19:28;11.90;;;4.38;;
15273;SDS011;7738;49.532;11.156;2022-11-23T16:22:02;9.07;;;4.90;;